Terminal Aerodrome Forecast
Issued by NWS Blacksburg, VA

Home | Current Version | Previous Version | Text Only | Print | Product List | Glossary On
Versions: 1 2 3 4 5 6 7 8 9 10 11 12 13 14 15 16 17 18 19 20 21 22 23 24 25 26 27 28 29 30 31 32 33 34 35 36 37 38 39 40 41 42
000
FTUS41 KRNK 290530
TAFLYH
TAF
KLYH 290530Z 2906/3006 00000KT 5SM BR BKN002
     FM290700 00000KT 2SM BR BKN003
     FM291400 17004KT P6SM OVC020
     FM291700 20005KT P6SM BKN050
     FM300000 18003KT P6SM SCT050 BKN250=

USA.gov is the U.S. government's official web portal to all federal, state and local government web resources and services.